Time;durP1;ratioP1;P1;durP2;ratioP2;P2;SDS_P1;SDS_P2;PMS_P1;PMS_P2;Temp;Humidity;BMP_temperature;BMP_pressure;BME280_temperature;BME280_humidity;BME280_pressure;Samples;Min_cycle;Max_cycle;Signal;HPM_P1;HPM_P2
2021/10/17 00:04:13;;;;;;;1999.90;999.90;;;;;;;11.81;71.33;101634.06;15585856;28;20061;-62
2021/10/17 00:11:45;;;;;;;1999.90;999.90;;;;;;;11.74;69.97;101648.44;15574012;28;20111;-62
2021/10/17 00:19:19;;;;;;;1999.90;999.90;;;;;;;11.94;69.37;101640.72;15616116;28;20055;-63
2021/10/17 00:26:51;;;;;;;1999.90;999.90;;;;;;;11.85;69.29;101637.84;15598269;28;20052;-64
2021/10/17 00:34:25;;;;;;;1999.90;999.90;;;;;;;11.90;69.10;101643.34;15582466;28;20045;-60
2021/10/17 00:42:01;;;;;;;1999.90;999.90;;;;;;;11.90;69.29;101639.72;15581070;28;20041;-63
2021/10/17 00:49:35;;;;;;;1999.90;999.90;;;;;;;11.85;69.38;101638.69;15577831;28;20179;-63
2021/10/17 00:57:07;;;;;;;1999.90;999.90;;;;;;;11.87;69.60;101637.53;15593878;28;20068;-63
2021/10/17 01:04:42;;;;;;;1999.90;999.90;;;;;;;11.78;69.92;101631.88;15576557;28;20089;-63
2021/10/17 01:12:15;;;;;;;1999.90;999.90;;;;;;;11.73;69.80;101635.63;15593745;28;20327;-62
2021/10/17 01:19:49;;;;;;;1999.90;999.90;;;;;;;11.73;69.91;101632.00;15592284;28;20083;-61
2021/10/17 01:27:24;;;;;;;1999.90;999.90;;;;;;;11.63;69.50;101612.69;15592249;28;20049;-63
2021/10/17 01:34:58;;;;;;;1999.90;999.90;;;;;;;11.68;69.78;101605.00;15567499;28;20052;-62
2021/10/17 01:42:31;;;;;;;1999.90;999.90;;;;;;;11.57;70.08;101598.84;15609412;28;20048;-61
2021/10/17 01:50:06;;;;;;;1999.90;999.90;;;;;;;11.48;69.88;101595.16;15575129;28;20057;-63
2021/10/17 01:57:40;;;;;;;1999.90;999.90;;;;;;;11.45;70.17;101590.19;15590951;28;20042;-63
2021/10/17 02:05:18;;;;;;;1999.90;999.90;;;;;;;11.56;69.17;101586.00;15590804;28;20037;-63
2021/10/17 02:12:53;;;;;;;1999.90;999.90;;;;;;;11.54;69.82;101588.28;15544898;28;20474;-63
2021/10/17 02:20:32;;;;;;;1999.90;999.90;;;;;;;11.56;69.35;101580.41;15590777;28;20041;-61
2021/10/17 02:28:06;;;;;;;1999.90;999.90;;;;;;;11.41;69.57;101572.41;15559664;28;20084;-61
2021/10/17 02:35:48;;;;;;;1999.90;999.90;;;;;;;11.60;68.82;101554.63;15555489;28;20056;-63
2021/10/17 02:43:20;;;;;;;1999.90;999.90;;;;;;;11.23;69.86;101545.47;15595943;28;20082;-62
2021/10/17 02:50:57;;;;;;;1999.90;999.90;;;;;;;11.57;69.10;101547.72;15655000;22;20512;-61
2021/10/17 02:58:29;;;;;;;1999.90;999.90;;;;;;;11.30;68.87;101537.50;15731746;28;20044;-62
2021/10/17 03:06:08;;;;;;;1999.90;999.90;;;;;;;11.52;67.87;101534.66;15698202;28;20044;-61
2021/10/17 03:13:43;;;;;;;1999.90;999.90;;;;;;;11.52;67.81;101539.44;15730253;28;20412;-63
2021/10/17 03:21:25;;;;;;;1999.90;999.90;;;;;;;11.42;68.52;101542.50;15731099;28;20045;-63
2021/10/17 03:28:58;;;;;;;1999.90;999.90;;;;;;;11.34;70.17;101554.44;15714692;28;20131;-62
2021/10/17 03:36:32;;;;;;;1999.90;999.90;;;;;;;11.20;70.50;101546.13;15714555;28;20067;-62
2021/10/17 03:44:05;;;;;;;1999.90;999.90;;;;;;;11.30;69.83;101548.66;15729970;28;20045;-63
2021/10/17 03:51:41;;;;;;;1999.90;999.90;;;;;;;10.93;69.93;101541.47;15729826;28;20551;-60
2021/10/17 03:59:16;;;;;;;1999.90;999.90;;;;;;;10.50;70.04;101527.94;15694733;28;20044;-62
2021/10/17 04:06:52;;;;;;;1999.90;999.90;;;;;;;10.26;70.68;101535.72;15727453;28;20052;-62
2021/10/17 04:14:37;;;;;;;1999.90;999.90;;;;;;;9.94;71.33;101531.88;15710428;28;20049;-62
2021/10/17 04:22:13;;;;;;;1999.90;999.90;;;;;;;9.84;70.82;101524.53;15726719;28;20044;-62
2021/10/17 04:29:45;;;;;;;1999.90;999.90;;;;;;;9.51;71.74;101518.19;15726210;28;20481;-60
2021/10/17 04:37:19;;;;;;;1999.90;999.90;;;;;;;9.44;71.91;101514.16;15743397;28;20036;-61
2021/10/17 04:44:53;;;;;;;1999.90;999.90;;;;;;;9.32;72.61;101511.84;15724978;28;20033;-60
2021/10/17 04:52:27;;;;;;;1999.90;999.90;;;;;;;9.32;72.47;101506.28;15744443;28;20048;-62
2021/10/17 04:59:59;;;;;;;1999.90;999.90;;;;;;;9.20;72.02;101514.28;15741870;28;20055;-62
2021/10/17 05:07:34;;;;;;;1999.90;999.90;;;;;;;9.11;72.02;101514.16;15707061;28;20045;-62
2021/10/17 05:15:08;;;;;;;1999.90;999.90;;;;;;;8.91;71.92;101523.66;15707039;28;20040;-62
2021/10/17 05:22:42;;;;;;;1999.90;999.90;;;;;;;8.66;72.50;101526.84;15723401;28;20045;-60
2021/10/17 05:30:15;;;;;;;1999.90;999.90;;;;;;;8.48;72.55;101527.66;15722782;28;20076;-62
2021/10/17 05:37:49;;;;;;;1999.90;999.90;;;;;;;8.56;72.99;101536.16;15722078;28;20425;-62
2021/10/17 05:45:22;;;;;;;1999.90;999.90;;;;;;;8.60;73.31;101541.94;15722299;28;20119;-62
2021/10/17 05:52:56;;;;;;;1999.90;999.90;;;;;;;8.87;73.26;101544.06;15680038;28;20094;-62
2021/10/17 06:00:31;;;;;;;1999.90;999.90;;;;;;;9.22;72.70;101546.28;15701537;28;20086;-61
2021/10/17 06:08:09;;;;;;;1999.90;999.90;;;;;;;9.56;71.96;101542.34;15685068;28;20045;-62
2021/10/17 06:15:43;;;;;;;1999.90;999.90;;;;;;;9.59;71.20;101544.53;15741969;28;20049;-63
2021/10/17 06:23:17;;;;;;;1999.90;999.90;;;;;;;9.80;70.82;101544.97;15688873;28;20490;-59
2021/10/17 06:30:50;;;;;;;1999.90;999.90;;;;;;;9.94;70.64;101547.78;15741565;28;20036;-61
2021/10/17 06:38:24;;;;;;;1999.90;999.90;;;;;;;9.96;69.77;101559.44;15679169;28;20048;-61
2021/10/17 06:45:57;;;;;;;1999.90;999.90;;;;;;;9.92;69.54;101578.75;15734904;28;20124;-63
2021/10/17 06:53:36;;;;;;;1999.90;999.90;;;;;;;10.02;69.52;101577.75;15724453;28;20040;-63
2021/10/17 07:01:08;;;;;;;1999.90;999.90;;;;;;;10.28;69.21;101578.06;15723370;28;20048;-63
2021/10/17 07:08:42;;;;;;;1999.90;999.90;;;;;;;10.59;68.09;101581.88;15759684;28;20063;-63
2021/10/17 07:16:26;;;;;;;1999.90;999.90;;;;;;;10.66;67.54;101581.47;15701202;28;20036;-63
2021/10/17 07:24:00;;;;;;;1999.90;999.90;;;;;;;10.81;67.12;101578.31;15731734;28;20048;-63
2021/10/17 07:31:32;;;;;;;1999.90;999.90;;;;;;;10.85;67.24;101579.34;15729547;28;20055;-63
2021/10/17 07:39:12;;;;;;;1999.90;999.90;;;;;;;11.19;67.26;101592.78;15729811;28;20037;-63
2021/10/17 07:46:48;;;;;;;1999.90;999.90;;;;;;;11.24;67.27;101584.28;15712552;28;20382;-63
2021/10/17 07:54:22;;;;;;;1999.90;999.90;;;;;;;11.49;66.77;101591.22;15728177;28;20072;-63
2021/10/17 08:01:55;;;;;;;1999.90;999.90;;;;;;;11.81;65.19;101592.13;15729599;28;20135;-63
2021/10/17 08:09:47;;;;;;;1999.90;999.90;;;;;;;11.76;65.64;101595.81;15699071;28;20346;-63
2021/10/17 08:17:19;;;;;;;1999.90;999.90;;;;;;;11.92;66.24;101601.06;15683224;28;20070;-63
2021/10/17 08:25:19;;;;;;;1999.90;999.90;;;;;;;12.47;64.49;101603.44;15709347;28;20531;-63
2021/10/17 08:32:52;;;;;;;1999.90;999.90;;;;;;;12.69;63.01;101606.13;15719369;28;20079;-63
2021/10/17 08:40:26;;;;;;;1999.90;999.90;;;;;;;12.99;62.71;101601.56;15705342;28;20497;-64
2021/10/17 08:48:20;;;;;;;1999.90;999.90;;;;;;;12.73;61.91;101595.94;15724797;28;20129;-63
2021/10/17 08:55:59;;;;;;;1999.90;999.90;;;;;;;12.95;61.10;101597.78;15700140;28;20102;-63
2021/10/17 09:03:40;;;;;;;1999.90;999.90;;;;;;;13.33;60.45;101577.53;15706334;28;20048;-62
2021/10/17 09:11:35;;;;;;;1999.90;999.90;;;;;;;14.19;58.80;101573.69;15724957;28;20501;-64
2021/10/17 09:19:15;;;;;;;1999.90;999.90;;;;;;;15.19;55.91;101581.34;15740872;28;20055;-63
2021/10/17 09:34:57;;;;;;;1999.90;999.90;;;;;;;16.40;49.76;101566.81;15831400;27;20366;-64
2021/10/17 09:42:38;;;;;;;1999.90;999.90;;;;;;;15.89;51.30;101582.34;15842043;22;20187;-62
2021/10/17 09:50:19;;;;;;;1999.90;999.90;;;;;;;15.23;52.58;101568.25;15742319;28;20554;-59
2021/10/17 09:57:52;;;;;;;1999.90;999.90;;;;;;;15.52;52.94;101579.38;15718814;28;20063;-59
2021/10/17 10:05:28;;;;;;;1999.90;999.90;;;;;;;16.30;52.29;101586.16;15712914;28;20045;-58
2021/10/17 10:13:05;;;;;;;1999.90;999.90;;;;;;;15.74;52.22;101571.78;15708625;28;20057;-60
2021/10/17 10:20:40;;;;;;;1999.90;999.90;;;;;;;15.87;52.58;101570.63;15718676;28;20040;-61
2021/10/17 10:28:14;;;;;;;1999.90;999.90;;;;;;;15.78;52.38;101565.09;15719435;28;20470;-60
2021/10/17 10:36:13;;;;;;;1999.90;999.90;;;;;;;15.98;51.37;101571.00;15731590;28;20094;-63
2021/10/17 10:43:45;;;;;;;1999.90;999.90;;;;;;;15.20;53.22;101577.34;15690468;28;20424;-59
2021/10/17 10:51:36;;;;;;;1999.90;999.90;;;;;;;16.32;51.05;101573.38;15685662;28;20041;-58
2021/10/17 10:59:10;;;;;;;1999.90;999.90;;;;;;;15.80;52.42;101570.38;15659737;28;20160;-60
2021/10/17 11:07:03;;;;;;;;;;;;;;;15.66;52.50;101581.13;15686433;28;20379;-55
2021/10/17 11:14:36;;;;;;;1999.90;999.90;;;;;;;15.36;53.14;101581.19;15653884;28;19927;-59
2021/10/17 11:22:10;;;;;;;1999.90;999.90;;;;;;;15.69;52.88;101575.59;15665555;28;20132;-61
2021/10/17 11:29:45;;;;;;;1999.90;999.90;;;;;;;15.81;53.65;101578.44;15649771;28;20149;-57
2021/10/17 11:37:23;;;;;;;1999.90;999.90;;;;;;;15.72;53.38;101574.91;15681546;28;20387;-57
2021/10/17 11:44:57;;;;;;;1999.90;999.90;;;;;;;16.02;53.67;101569.94;15675427;28;20053;-59
2021/10/17 11:52:30;;;;;;;1999.90;999.90;;;;;;;16.19;52.75;101568.09;15674664;28;20041;-58
2021/10/17 12:00:05;;;;;;;1999.90;999.90;;;;;;;16.57;52.24;101576.19;15676068;28;20103;-58
2021/10/17 12:07:47;;;;;;;1999.90;999.90;;;;;;;16.41;53.08;101573.25;15678808;28;20404;-59
2021/10/17 12:15:20;;;;;;;1999.90;999.90;;;;;;;15.71;54.44;101553.56;15660102;28;20530;-54
2021/10/17 12:23:04;;;;;;;1999.90;999.90;;;;;;;16.27;54.20;101544.63;15672029;28;20485;-57
2021/10/17 12:31:11;;;;;;;1999.90;999.90;;;;;;;16.54;53.24;101549.53;15676341;28;20044;-57
2021/10/17 12:39:05;;;;;;;1999.90;999.90;;;;;;;16.02;54.44;101550.22;15671073;28;20114;-58
2021/10/17 12:47:03;;;;;;;1999.90;999.90;;;;;;;16.30;54.24;101538.28;15673250;28;20052;-58
2021/10/17 12:54:45;;;;;;;1999.90;999.90;;;;;;;15.72;55.30;101546.78;15664870;28;20501;-57
2021/10/17 13:02:20;;;;;;;1999.90;999.90;;;;;;;16.12;55.85;101543.31;15673969;28;20405;-55
2021/10/17 13:09:56;;;;;;;1999.90;999.90;;;;;;;15.84;54.89;101541.19;15660522;28;20052;-58
2021/10/17 13:17:29;;;;;;;1999.90;999.90;;;;;;;15.87;56.18;101536.84;15661067;28;20482;-58
2021/10/17 13:25:04;;;;;;;1999.90;999.90;;;;;;;15.53;56.35;101540.84;15673129;28;20517;-56
2021/10/17 13:32:37;;;;;;;1999.90;999.90;;;;;;;15.40;56.74;101541.94;15684029;28;20540;-53
2021/10/17 13:40:13;;;;;;;1999.90;999.90;;;;;;;15.29;58.00;101545.19;15669454;28;20070;-53
2021/10/17 13:47:45;;;;;;;1999.90;999.90;;;;;;;14.69;58.46;101548.47;15667756;28;20183;-55
2021/10/17 13:55:20;;;;;;;1999.90;999.90;;;;;;;15.01;58.39;101553.41;15670731;28;20151;-59
2021/10/17 14:02:54;;;;;;;1999.90;999.90;;;;;;;15.19;58.87;101545.63;15670010;28;20445;-59
2021/10/17 14:10:28;;;;;;;1999.90;999.90;;;;;;;15.25;58.29;101537.81;15668480;28;20051;-58
2021/10/17 14:18:01;;;;;;;1999.90;999.90;;;;;;;15.24;58.61;101531.38;15674596;28;20053;-59
2021/10/17 14:25:35;;;;;;;1999.90;999.90;;;;;;;15.33;58.16;101530.47;15678750;28;20049;-59
2021/10/17 14:33:07;;;;;;;1999.90;999.90;;;;;;;15.39;58.77;101531.88;15678788;28;20048;-59
2021/10/17 14:40:47;;;;;;;1999.90;999.90;;;;;;;15.36;59.54;101536.22;15680707;28;20127;-60
2021/10/17 14:48:22;;;;;;;1999.90;999.90;;;;;;;15.39;58.80;101540.31;15678896;28;20096;-58
2021/10/17 14:55:56;;;;;;;1999.90;999.90;;;;;;;15.35;59.23;101547.81;15680105;28;20045;-57
2021/10/17 15:03:28;;;;;;;1999.90;999.90;;;;;;;15.24;60.36;101547.41;15678522;28;20059;-57
2021/10/17 15:11:02;;;;;;;1999.90;999.90;;;;;;;15.17;60.66;101552.75;15678294;28;20425;-59
2021/10/17 15:18:35;;;;;;;1999.90;999.90;;;;;;;14.88;60.81;101551.66;15676336;28;20061;-59
2021/10/17 15:26:09;;;;;;;1999.90;999.90;;;;;;;14.82;61.10;101555.84;15677184;28;20413;-57
2021/10/17 15:33:41;;;;;;;1999.90;999.90;;;;;;;14.86;61.81;101555.97;15676568;28;20049;-59
2021/10/17 15:41:15;;;;;;;1999.90;999.90;;;;;;;14.88;61.72;101550.84;15676919;28;20151;-60
2021/10/17 15:48:49;;;;;;;1999.90;999.90;;;;;;;14.71;61.57;101557.41;15712968;22;20489;-60
2021/10/17 15:56:23;;;;;;;;;;;;;;;14.72;61.52;101570.31;15736635;28;20048;-59
2021/10/17 16:03:55;;;;;;;1999.90;999.90;;;;;;;14.51;62.28;101581.50;15694486;28;19924;-62
2021/10/17 16:11:32;;;;;;;1999.90;999.90;;;;;;;14.47;62.87;101574.06;15701999;28;20131;-61
2021/10/17 16:19:04;;;;;;;1999.90;999.90;;;;;;;14.25;62.74;101580.75;15684717;28;20091;-62
2021/10/17 16:26:38;;;;;;;1999.90;999.90;;;;;;;14.02;62.58;101583.81;15690065;28;20052;-62
2021/10/17 16:34:14;;;;;;;1999.90;999.90;;;;;;;14.26;62.45;101594.44;15696691;28;20100;-61
2021/10/17 16:41:48;;;;;;;1999.90;999.90;;;;;;;14.26;62.51;101596.44;15690129;28;20428;-62
2021/10/17 16:49:20;;;;;;;1999.90;999.90;;;;;;;14.31;62.16;101590.66;15685804;28;20044;-60
2021/10/17 16:56:54;;;;;;;1999.90;999.90;;;;;;;14.43;62.61;101604.78;15715385;28;20033;-61
2021/10/17 17:04:27;;;;;;;1999.90;999.90;;;;;;;14.36;62.17;101610.09;15733494;28;20040;-60
2021/10/17 17:12:00;;;;;;;1999.90;999.90;;;;;;;14.29;62.58;101619.06;15729043;28;20135;-60
2021/10/17 17:19:34;;;;;;;1999.90;999.90;;;;;;;14.23;62.88;101617.59;15733355;28;20460;-60
2021/10/17 17:27:08;;;;;;;1999.90;999.90;;;;;;;14.26;63.14;101616.09;15708301;28;20048;-60
2021/10/17 17:34:41;;;;;;;1999.90;999.90;;;;;;;14.14;63.90;101619.59;15722565;28;20037;-62
2021/10/17 17:42:14;;;;;;;1999.90;999.90;;;;;;;13.95;64.57;101624.78;15715849;28;20040;-62
2021/10/17 17:49:47;;;;;;;1999.90;999.90;;;;;;;13.96;65.03;101621.63;15727372;28;20044;-62
2021/10/17 17:57:22;;;;;;;1999.90;999.90;;;;;;;13.85;65.77;101623.97;15750643;28;20052;-60
2021/10/17 18:04:55;;;;;;;1999.90;999.90;;;;;;;13.74;66.01;101625.47;15751112;28;20485;-59
2021/10/17 18:12:29;;;;;;;1999.90;999.90;;;;;;;13.90;67.59;101636.19;15730185;28;20443;-58
2021/10/17 18:20:01;;;;;;;1999.90;999.90;;;;;;;13.74;67.46;101639.50;15745425;28;20049;-58
2021/10/17 18:27:35;;;;;;;1999.90;999.90;;;;;;;13.52;68.83;101646.13;15722488;28;20072;-59
2021/10/17 18:35:08;;;;;;;1999.90;999.90;;;;;;;13.63;69.12;101655.03;15708550;28;20128;-60
2021/10/17 18:42:42;;;;;;;1999.90;999.90;;;;;;;13.35;70.50;101650.94;15741981;28;20544;-64
2021/10/17 18:50:16;;;;;;;1999.90;999.90;;;;;;;13.23;71.16;101659.97;15726755;28;20063;-58
2021/10/17 18:57:50;;;;;;;1999.90;999.90;;;;;;;13.11;71.84;101663.38;15707325;28;20076;-56
2021/10/17 19:05:23;;;;;;;1999.90;999.90;;;;;;;13.06;72.10;101668.34;15738576;28;20051;-62
2021/10/17 19:12:57;;;;;;;;;;;;;;;13.12;71.89;101673.44;15745294;28;20040;-59
2021/10/17 19:20:36;;;;;;;1999.90;999.90;;;;;;;13.10;72.31;101677.72;15746100;28;19967;-60
2021/10/17 19:28:09;;;;;;;1999.90;999.90;;;;;;;13.19;72.48;101682.22;15747336;28;20045;-60
2021/10/17 19:35:42;;;;;;;1999.90;999.90;;;;;;;12.98;73.08;101689.56;15736461;28;20049;-59
2021/10/17 19:43:16;;;;;;;1999.90;999.90;;;;;;;13.02;72.66;101696.16;15731448;28;20041;-59
2021/10/17 19:50:49;;;;;;;1999.90;999.90;;;;;;;12.99;73.01;101694.00;15729604;28;20083;-59
2021/10/17 19:58:23;;;;;;;1999.90;999.90;;;;;;;13.01;73.42;101712.16;15731566;28;20076;-62
2021/10/17 20:05:56;;;;;;;1999.90;999.90;;;;;;;12.92;73.45;101714.13;15743772;28;20044;-59
2021/10/17 20:13:30;;;;;;;1999.90;999.90;;;;;;;12.90;74.07;101721.19;15741379;28;20413;-60
2021/10/17 20:21:04;;;;;;;1999.90;999.90;;;;;;;12.75;74.31;101724.44;15743933;28;20079;-61
2021/10/17 20:28:38;;;;;;;1999.90;999.90;;;;;;;12.76;74.33;101729.69;15742074;28;20048;-59
2021/10/17 20:44:03;;;;;;;1999.90;999.90;;;;;;;12.68;73.71;101733.28;15740626;28;20072;-60
2021/10/17 20:51:37;;;;;;;1999.90;999.90;;;;;;;12.71;73.64;101741.88;15741341;28;20044;-61
2021/10/17 20:59:11;;;;;;;1999.90;999.90;;;;;;;12.71;74.07;101736.28;15741875;28;20119;-59
2021/10/17 21:06:44;;;;;;;1999.90;999.90;;;;;;;12.66;74.18;101744.00;15740707;28;20052;-59
2021/10/17 21:14:18;;;;;;;1999.90;999.90;;;;;;;12.46;74.93;101736.97;15740979;28;20501;-57
2021/10/17 21:21:53;;;;;;;1999.90;999.90;;;;;;;12.28;74.94;101747.22;15728728;28;20040;-61
2021/10/17 21:29:28;;;;;;;1999.90;999.90;;;;;;;12.30;75.52;101742.16;15739695;28;20068;-59
2021/10/17 21:37:00;;;;;;;1999.90;999.90;;;;;;;12.38;74.80;101748.94;15740514;28;20070;-60
2021/10/17 21:44:34;;;;;;;1999.90;999.90;;;;;;;12.60;74.71;101760.09;15721345;22;20076;-57
2021/10/17 21:52:07;;;;;;;1999.90;999.90;;;;;;;12.44;74.80;101753.25;15609279;28;20398;-60
2021/10/17 21:59:41;;;;;;;1999.90;999.90;;;;;;;12.63;74.58;101759.47;15608409;28;21285;-59
2021/10/17 22:07:13;;;;;;;1999.90;999.90;;;;;;;12.63;74.63;101758.66;15609604;28;20042;-58
2021/10/17 22:14:47;;;;;;;1999.90;999.90;;;;;;;12.58;74.42;101762.41;15608047;28;20088;-59
2021/10/17 22:22:21;;;;;;;1999.90;999.90;;;;;;;12.53;74.07;101770.13;15609234;28;20521;-58
2021/10/17 22:29:54;;;;;;;1999.90;999.90;;;;;;;12.62;74.05;101774.63;15608428;28;20041;-60
2021/10/17 22:37:27;;;;;;;1999.90;999.90;;;;;;;12.55;74.48;101770.63;15596907;28;20037;-59
2021/10/17 22:45:01;;;;;;;1999.90;999.90;;;;;;;12.58;74.10;101769.97;15620273;28;20061;-60
2021/10/17 22:52:34;;;;;;;1999.90;999.90;;;;;;;12.54;74.44;101768.97;15616881;28;20046;-60
2021/10/17 23:00:11;;;;;;;1999.90;999.90;;;;;;;12.56;74.42;101775.91;15618029;28;20103;-60
2021/10/17 23:07:44;;;;;;;1999.90;999.90;;;;;;;12.53;74.18;101781.31;15615886;28;20516;-58
2021/10/17 23:15:18;;;;;;;1999.90;999.90;;;;;;;12.31;74.39;101790.56;15617419;28;20207;-58
2021/10/17 23:22:50;;;;;;;1999.90;999.90;;;;;;;12.32;74.02;101781.84;15588392;28;20072;-59
2021/10/17 23:30:24;;;;;;;1999.90;999.90;;;;;;;12.42;74.06;101784.38;15588259;28;20486;-60
2021/10/17 23:37:57;;;;;;;1999.90;999.90;;;;;;;12.37;74.00;101792.91;15584855;28;20095;-59
2021/10/17 23:45:31;;;;;;;1999.90;999.90;;;;;;;12.50;73.58;101798.72;15601098;28;20049;-58
2021/10/17 23:53:07;;;;;;;1999.90;999.90;;;;;;;12.47;74.08;101803.00;15614356;28;20450;-60
